Allen, Oklahoma
Current Conditions -  °F | °C
As of 3:15 PM on Thursday 23 Oct 2014 (Local Time) from KADH Reporting Station
Scattered Clouds Scattered Clouds  
Wind Chill: 77°   Ceiling: Unl
Heat Index: 79°   Visibility: 10mi
Dew Point: 61°   Wind: 6mph
Humidity: 57%   Direction: 220°SW
Pressure: 30.08"   Gusts: NA
Location:  34.88°N, 96.41°W
Report Text: KADH 232015Z AUTO 22005KT 10SM SCT041 25/16 A3008 RMK AO2
Loading
Personal Weather Stations






























Interactive Weather Map
Tropical Storm Tracking
New forecast layout! Learn more

10-Day Weather Forecast

Advertisements
Track Severe Weather on mobile